createdAt,value
2019-03-19T00:00:13.970Z,1.15
2019-03-19T00:02:42.578Z,1.19
2019-03-19T00:05:12.086Z,1.23
2019-03-19T00:07:40.833Z,1.26
2019-03-19T00:10:10.297Z,1.20
2019-03-19T00:12:39.127Z,1.14
2019-03-19T00:15:12.217Z,1.23
2019-03-19T00:17:41.008Z,1.26
2019-03-19T00:20:16.248Z,1.19
2019-03-19T00:22:46.473Z,1.11
2019-03-19T00:25:15.151Z,1.19
2019-03-19T00:27:43.848Z,1.23
2019-03-19T00:30:14.402Z,1.29
2019-03-19T00:32:44.707Z,1.24
2019-03-19T00:35:13.699Z,1.22
2019-03-19T00:37:44.199Z,1.21
2019-03-19T00:40:14.146Z,1.27
2019-03-19T00:42:43.293Z,1.28
2019-03-19T00:45:13.351Z,1.31
2019-03-19T00:47:42.126Z,1.49
2019-03-19T00:50:16.968Z,1.44
2019-03-19T00:52:45.656Z,1.41
2019-03-19T00:55:14.981Z,1.36
2019-03-19T00:57:44.061Z,1.30
2019-03-19T01:00:17.677Z,1.24
2019-03-19T01:02:46.444Z,1.22
2019-03-19T01:05:16.872Z,1.10
2019-03-19T01:07:45.671Z,1.13
2019-03-19T01:10:17.858Z,1.13
2019-03-19T01:12:46.565Z,1.15
2019-03-19T01:15:15.622Z,1.09
2019-03-19T01:17:44.512Z,0.97
2019-03-19T01:20:16.372Z,0.96
2019-03-19T01:22:45.054Z,0.83
2019-03-19T01:25:15.069Z,0.87
2019-03-19T01:27:43.748Z,0.86
2019-03-19T01:30:13.920Z,0.85
2019-03-19T01:32:42.591Z,0.85
2019-03-19T01:35:11.354Z,0.80
2019-03-19T01:37:39.975Z,0.78
2019-03-19T01:40:13.179Z,0.77
2019-03-19T01:42:41.881Z,0.72
2019-03-19T01:45:11.758Z,0.73
2019-03-19T01:47:40.422Z,0.63
2019-03-19T01:50:15.918Z,0.57
2019-03-19T01:52:44.585Z,0.53
2019-03-19T01:55:15.561Z,0.65
2019-03-19T01:57:44.283Z,0.68
2019-03-19T02:00:14.534Z,0.44
2019-03-19T02:02:43.192Z,0.39
2019-03-19T02:05:11.943Z,0.43
2019-03-19T02:07:40.613Z,0.33
2019-03-19T02:10:11.500Z,0.43
2019-03-19T02:12:40.286Z,0.43
2019-03-19T02:15:14.131Z,0.39
2019-03-19T02:17:42.796Z,0.39
2019-03-19T02:20:16.052Z,0.33
2019-03-19T02:22:44.725Z,0.36
2019-03-19T02:25:13.456Z,0.40
2019-03-19T02:27:42.142Z,0.40
2019-03-19T02:30:17.323Z,0.41
2019-03-19T02:32:46.119Z,0.42
2019-03-19T02:35:14.822Z,0.41
2019-03-19T02:37:43.547Z,0.41
2019-03-19T02:40:16.359Z,0.33
2019-03-19T02:42:44.966Z,0.40
2019-03-19T02:45:14.644Z,0.44
2019-03-19T02:47:43.335Z,0.41
2019-03-19T02:50:13.749Z,0.46
2019-03-19T02:52:42.425Z,0.52
2019-03-19T02:55:11.941Z,0.56
2019-03-19T02:57:40.609Z,0.62
2019-03-19T03:00:12.128Z,0.55
2019-03-19T03:02:42.644Z,0.37
2019-03-19T03:05:18.849Z,0.41
2019-03-19T03:07:47.579Z,0.44
2019-03-19T03:10:16.244Z,0.49
2019-03-19T03:12:44.866Z,0.42
2019-03-19T03:15:14.660Z,0.39
2019-03-19T03:17:43.305Z,0.37
2019-03-19T03:20:17.205Z,0.37
2019-03-19T03:22:45.851Z,0.37
2019-03-19T03:25:15.808Z,0.40
2019-03-19T03:27:44.595Z,0.24
2019-03-19T03:30:23.875Z,0.19
2019-03-19T03:32:52.744Z,0.33
2019-03-19T03:35:21.523Z,0.36
2019-03-19T03:37:50.203Z,0.31
2019-03-19T03:40:20.752Z,0.19
2019-03-19T03:42:49.340Z,0.17
2019-03-19T03:45:19.044Z,0.14
2019-03-19T03:47:47.649Z,0.04
2019-03-19T03:50:19.867Z,0.06
2019-03-19T03:52:51.045Z,0.08
2019-03-19T03:55:20.631Z,0.04
2019-03-19T03:57:49.524Z,-0.05
2019-03-19T04:00:23.026Z,-0.09
2019-03-19T04:02:51.738Z,-0.12
2019-03-19T04:05:20.567Z,-0.09
2019-03-19T04:07:49.289Z,-0.23
2019-03-19T04:10:18.709Z,-0.22
2019-03-19T04:12:47.415Z,-0.19
2019-03-19T04:15:16.928Z,-0.15
2019-03-19T04:17:45.690Z,-0.14
2019-03-19T04:20:18.020Z,-0.22
2019-03-19T04:22:46.641Z,-0.18
2019-03-19T04:25:15.969Z,-0.12
2019-03-19T04:27:44.580Z,-0.21
2019-03-19T04:30:20.181Z,-0.15
2019-03-19T04:32:48.826Z,-0.18
2019-03-19T04:35:17.500Z,-0.20
2019-03-19T04:37:46.176Z,-0.18
2019-03-19T04:40:15.695Z,-0.28
2019-03-19T04:42:44.698Z,-0.24
2019-03-19T04:45:14.516Z,-0.31
2019-03-19T04:47:43.511Z,-0.38
2019-03-19T04:50:15.790Z,-0.27
2019-03-19T04:52:44.893Z,-0.23
2019-03-19T04:55:18.094Z,-0.29
2019-03-19T04:57:46.778Z,-0.32
2019-03-19T05:00:20.389Z,-0.16
2019-03-19T05:02:49.014Z,-0.30
2019-03-19T05:05:17.616Z,-0.38
2019-03-19T05:07:46.598Z,-0.48
2019-03-19T05:10:19.667Z,-0.49
2019-03-19T05:12:48.366Z,-0.42
2019-03-19T05:15:17.032Z,-0.47
2019-03-19T05:17:45.696Z,-0.43
2019-03-19T05:20:18.349Z,-0.44
2019-03-19T05:22:47.051Z,-0.46
2019-03-19T05:25:15.822Z,-0.65
2019-03-19T05:27:44.442Z,-0.59
2019-03-19T05:30:20.192Z,-0.53
2019-03-19T05:32:48.863Z,-0.60
2019-03-19T05:35:17.530Z,-0.61
2019-03-19T05:37:46.228Z,-0.62
2019-03-19T05:40:16.949Z,-0.56
2019-03-19T05:42:45.585Z,-0.53
2019-03-19T05:45:14.954Z,-0.56
2019-03-19T05:47:43.638Z,-0.49
2019-03-19T05:50:17.310Z,-0.40
2019-03-19T05:52:48.293Z,-0.40
2019-03-19T05:55:16.352Z,-0.31
2019-03-19T05:57:49.849Z,-0.36
2019-03-19T06:00:24.076Z,-0.28
2019-03-19T06:02:52.816Z,-0.19
2019-03-19T06:05:21.683Z,-0.12
2019-03-19T06:07:50.483Z,-0.06
2019-03-19T06:10:19.162Z,-0.02
2019-03-19T06:12:47.792Z,0.04
2019-03-19T06:15:16.871Z,0.13
2019-03-19T06:17:45.516Z,0.16
2019-03-19T06:20:20.551Z,0.25
2019-03-19T06:22:49.226Z,0.28
2019-03-19T06:25:17.981Z,0.25
2019-03-19T06:27:46.715Z,0.32
2019-03-19T06:30:17.991Z,0.37
2019-03-19T06:32:47.077Z,0.36
2019-03-19T06:35:16.258Z,0.43
2019-03-19T06:37:45.001Z,0.38
2019-03-19T06:40:19.944Z,0.50
2019-03-19T06:42:48.560Z,0.74
2019-03-19T06:45:19.402Z,0.69
2019-03-19T06:47:48.463Z,0.64
2019-03-19T06:50:19.138Z,0.77
2019-03-19T06:52:48.337Z,1.13
2019-03-19T06:55:20.573Z,1.33
2019-03-19T06:57:49.482Z,1.55
2019-03-19T07:00:26.550Z,1.73
2019-03-19T07:02:55.333Z,1.84
2019-03-19T07:05:24.125Z,2.06
2019-03-19T07:07:52.907Z,2.21
2019-03-19T07:10:22.110Z,2.22
2019-03-19T07:12:50.995Z,1.77
2019-03-19T07:15:23.538Z,2.14
2019-03-19T07:17:52.466Z,2.09
2019-03-19T07:20:28.313Z,2.49
2019-03-19T07:22:58.149Z,2.88
2019-03-19T07:25:26.948Z,3.10
2019-03-19T07:27:55.585Z,3.48
2019-03-19T07:30:28.665Z,3.64
2019-03-19T07:32:57.398Z,3.79
2019-03-19T07:35:26.116Z,3.13
2019-03-19T07:37:54.743Z,2.74
2019-03-19T07:40:23.356Z,2.55
2019-03-19T07:42:52.042Z,2.53
2019-03-19T07:45:22.817Z,2.48
2019-03-19T07:47:51.492Z,2.97
2019-03-19T07:50:23.172Z,3.34
2019-03-19T07:52:54.034Z,3.61
2019-03-19T07:55:22.321Z,3.90
2019-03-19T07:57:51.019Z,3.99
2019-03-19T08:00:20.740Z,4.34
2019-03-19T08:02:49.454Z,4.32
2019-03-19T08:05:18.122Z,4.26
2019-03-19T08:07:48.227Z,4.27
2019-03-19T08:10:18.976Z,4.49
2019-03-19T08:12:49.181Z,5.01
2019-03-19T08:15:18.941Z,4.86
2019-03-19T08:17:51.909Z,4.81
2019-03-19T08:20:20.608Z,5.07
2019-03-19T08:22:52.131Z,5.79
2019-03-19T08:25:20.858Z,6.01
2019-03-19T08:27:52.189Z,5.83
2019-03-19T08:30:26.015Z,5.57
2019-03-19T08:32:54.666Z,5.43
2019-03-19T08:35:24.585Z,5.39
2019-03-19T08:37:53.766Z,6.36
2019-03-19T08:40:22.394Z,5.59
2019-03-19T08:42:51.113Z,5.41
2019-03-19T08:45:21.289Z,5.95
2019-03-19T08:47:49.911Z,5.55
2019-03-19T08:50:21.286Z,5.82
2019-03-19T08:52:49.986Z,4.94
2019-03-19T08:55:18.757Z,5.21
2019-03-19T08:57:47.396Z,5.04
2019-03-19T09:00:22.054Z,5.20
2019-03-19T09:02:50.681Z,5.04
2019-03-19T09:05:20.859Z,4.99
2019-03-19T09:07:49.606Z,4.78
2019-03-19T09:10:22.397Z,4.92
2019-03-19T09:12:52.543Z,5.10
2019-03-19T09:15:23.332Z,5.13
2019-03-19T09:17:54.980Z,5.44
2019-03-19T09:20:23.610Z,5.31
2019-03-19T09:22:54.319Z,5.46
2019-03-19T09:25:22.648Z,5.23
2019-03-19T09:27:51.331Z,5.29
2019-03-19T09:30:25.919Z,5.11
2019-03-19T09:32:54.652Z,4.98
2019-03-19T09:35:26.293Z,5.44
2019-03-19T09:37:58.838Z,5.44
2019-03-19T09:40:30.033Z,5.75
2019-03-19T09:42:58.706Z,5.89
2019-03-19T09:45:29.034Z,5.75
2019-03-19T09:47:58.030Z,5.93
2019-03-19T09:50:29.861Z,5.70
2019-03-19T09:52:58.702Z,5.49
2019-03-19T09:55:30.659Z,5.75
2019-03-19T09:57:59.431Z,5.87
2019-03-19T10:00:28.121Z,5.11
2019-03-19T10:02:56.908Z,5.18
2019-03-19T10:05:27.640Z,5.47
2019-03-19T10:07:57.710Z,5.16
2019-03-19T10:10:33.829Z,5.09
2019-03-19T10:13:02.904Z,5.30
2019-03-19T10:15:33.258Z,5.71
2019-03-19T10:18:01.949Z,5.66
2019-03-19T10:20:32.151Z,5.50
2019-03-19T10:23:02.477Z,5.39
2019-03-19T10:25:31.188Z,5.53
2019-03-19T10:28:03.025Z,5.59
2019-03-19T10:30:31.772Z,5.43
2019-03-19T10:33:00.432Z,5.58
2019-03-19T10:35:30.556Z,5.82
2019-03-19T10:38:00.749Z,6.08
2019-03-19T10:40:29.568Z,6.05
2019-03-19T10:43:00.073Z,5.98
2019-03-19T10:45:30.283Z,6.18
2019-03-19T10:48:01.526Z,6.04
2019-03-19T10:50:30.313Z,6.22
2019-03-19T10:52:59.005Z,5.76
2019-03-19T10:55:28.059Z,5.86
2019-03-19T10:57:56.785Z,6.09
2019-03-19T11:00:26.293Z,5.56
2019-03-19T11:02:55.602Z,5.46
2019-03-19T11:05:25.307Z,5.93
2019-03-19T11:07:54.309Z,5.81
2019-03-19T11:10:24.923Z,5.83
2019-03-19T11:12:55.169Z,5.81
2019-03-19T11:15:26.106Z,5.44
2019-03-19T11:17:56.292Z,5.42
2019-03-19T11:20:25.118Z,5.68
2019-03-19T11:22:53.787Z,5.71
2019-03-19T11:25:32.458Z,5.88
2019-03-19T11:28:01.162Z,6.08
2019-03-19T11:30:30.719Z,5.89
2019-03-19T11:32:59.396Z,6.09
2019-03-19T11:35:28.201Z,6.09
2019-03-19T11:38:02.378Z,5.83
2019-03-19T11:40:31.074Z,5.98
2019-03-19T11:43:01.581Z,5.97
2019-03-19T11:45:31.341Z,5.47
2019-03-19T11:48:04.101Z,5.46
2019-03-19T11:50:33.646Z,5.50
2019-03-19T11:53:04.041Z,5.47
2019-03-19T11:55:32.844Z,5.47
2019-03-19T11:58:01.504Z,5.96
2019-03-19T12:00:32.753Z,5.82
2019-03-19T12:03:13.763Z,5.93
2019-03-19T12:05:34.322Z,5.99
2019-03-19T12:08:04.654Z,5.66
2019-03-19T12:10:33.347Z,5.83
2019-03-19T12:13:08.183Z,5.66
2019-03-19T12:15:32.452Z,5.65
2019-03-19T12:18:01.343Z,5.72
2019-03-19T12:20:30.025Z,6.12
2019-03-19T12:23:02.075Z,6.08
2019-03-19T12:25:31.379Z,6.37
2019-03-19T12:28:04.688Z,6.71
2019-03-19T12:30:33.723Z,6.86
2019-03-19T12:33:04.005Z,6.66
2019-03-19T12:35:35.455Z,6.27
2019-03-19T12:38:07.161Z,6.23
2019-03-19T12:40:37.458Z,6.24
2019-03-19T12:43:11.763Z,6.10
2019-03-19T12:45:40.147Z,6.25
2019-03-19T12:48:11.820Z,6.42
2019-03-19T12:50:40.677Z,6.59
2019-03-19T12:53:12.033Z,6.35
2019-03-19T12:55:43.582Z,6.63
2019-03-19T12:58:12.266Z,6.76
2019-03-19T13:00:41.062Z,6.64
2019-03-19T13:03:09.754Z,6.22
2019-03-19T13:05:38.441Z,6.02
2019-03-19T13:08:07.222Z,6.19
2019-03-19T13:10:35.907Z,6.42
2019-03-19T13:13:09.210Z,6.39
2019-03-19T13:15:37.814Z,6.22
2019-03-19T13:18:06.518Z,6.42
2019-03-19T13:20:35.366Z,6.48
2019-03-19T13:23:04.049Z,6.49
2019-03-19T13:25:32.939Z,6.52
2019-03-19T13:28:05.222Z,6.08
2019-03-19T13:30:44.408Z,6.46
2019-03-19T13:33:06.626Z,6.36
2019-03-19T13:35:35.250Z,6.38
2019-03-19T13:38:09.820Z,6.25
2019-03-19T13:40:38.542Z,6.38
2019-03-19T13:43:09.895Z,6.72
2019-03-19T13:45:38.664Z,6.80
2019-03-19T13:48:08.879Z,6.79
2019-03-19T13:50:41.540Z,6.73
2019-03-19T13:53:14.819Z,6.64
2019-03-19T13:55:43.496Z,6.63
2019-03-19T13:58:12.232Z,6.81
2019-03-19T14:00:40.873Z,6.76
2019-03-19T14:03:09.575Z,6.27
2019-03-19T14:05:38.190Z,6.56
2019-03-19T14:08:06.881Z,6.75
2019-03-19T14:10:37.102Z,6.67
2019-03-19T14:13:05.917Z,6.59
2019-03-19T14:15:34.588Z,6.35
2019-03-19T14:18:03.244Z,6.56
2019-03-19T14:20:33.742Z,6.31
2019-03-19T14:23:02.424Z,6.29
2019-03-19T14:25:31.318Z,6.11
2019-03-19T14:28:00.107Z,6.24
2019-03-19T14:30:28.789Z,6.21
2019-03-19T14:32:57.487Z,6.27
2019-03-19T14:35:36.653Z,6.38
2019-03-19T14:37:56.795Z,6.31
2019-03-19T14:40:26.721Z,6.31
2019-03-19T14:42:58.296Z,6.17
2019-03-19T14:45:27.327Z,6.02
2019-03-19T14:47:59.226Z,5.84
2019-03-19T14:50:30.876Z,5.65
2019-03-19T14:53:03.846Z,5.59
2019-03-19T14:55:32.554Z,5.58
2019-03-19T14:58:01.449Z,5.43
2019-03-19T15:00:30.235Z,5.42
2019-03-19T15:03:00.581Z,5.65
2019-03-19T15:05:29.973Z,5.46
2019-03-19T15:07:58.652Z,5.33
2019-03-19T15:10:33.778Z,5.23
2019-03-19T15:13:03.590Z,5.22
2019-03-19T15:15:32.540Z,5.32
2019-03-19T15:18:01.410Z,5.27
2019-03-19T15:20:30.152Z,5.25
2019-03-19T15:23:00.361Z,5.30
2019-03-19T15:25:29.123Z,4.71
2019-03-19T15:27:59.546Z,5.17
2019-03-19T15:30:28.186Z,5.10
2019-03-19T15:32:57.124Z,5.24
2019-03-19T15:35:25.763Z,5.23
2019-03-19T15:37:54.764Z,4.94
2019-03-19T15:40:25.699Z,4.97
2019-03-19T15:42:54.489Z,5.04
2019-03-19T15:45:31.617Z,5.05
2019-03-19T15:47:59.852Z,4.95
2019-03-19T15:50:28.671Z,4.94
2019-03-19T15:52:59.225Z,4.84
2019-03-19T15:55:29.489Z,4.86
2019-03-19T15:57:59.635Z,4.87
2019-03-19T16:00:28.511Z,4.85
2019-03-19T16:02:58.843Z,4.74
2019-03-19T16:05:27.732Z,4.98
2019-03-19T16:07:57.154Z,4.71
2019-03-19T16:10:26.316Z,4.71
2019-03-19T16:12:56.990Z,4.73
2019-03-19T16:15:26.348Z,4.73
2019-03-19T16:17:55.945Z,4.60
2019-03-19T16:20:24.592Z,4.66
2019-03-19T16:22:54.669Z,4.60
2019-03-19T16:25:40.682Z,4.48
2019-03-19T16:28:09.773Z,4.52
2019-03-19T16:30:38.538Z,4.53
2019-03-19T16:33:12.188Z,4.50
2019-03-19T16:35:40.561Z,4.47
2019-03-19T16:38:09.596Z,4.43
2019-03-19T16:40:44.502Z,4.31
2019-03-19T16:43:10.572Z,4.31
2019-03-19T16:45:39.339Z,4.32
2019-03-19T16:48:09.322Z,4.44
2019-03-19T16:50:40.285Z,4.33
2019-03-19T16:53:08.505Z,4.30
2019-03-19T16:55:41.811Z,4.31
2019-03-19T16:58:12.121Z,4.18
2019-03-19T17:00:40.782Z,4.31
2019-03-19T17:03:09.591Z,4.31
2019-03-19T17:05:38.295Z,4.22
2019-03-19T17:08:06.944Z,4.19
2019-03-19T17:10:35.680Z,4.21
2019-03-19T17:13:04.740Z,4.20
2019-03-19T17:15:33.532Z,4.14
2019-03-19T17:18:04.246Z,4.15
2019-03-19T17:20:32.611Z,4.22
2019-03-19T17:23:04.957Z,4.15
2019-03-19T17:25:35.813Z,4.06
2019-03-19T17:28:05.878Z,4.11
2019-03-19T17:30:36.990Z,4.13
2019-03-19T17:33:06.158Z,4.12
2019-03-19T17:35:35.196Z,4.08
2019-03-19T17:38:04.112Z,4.05
2019-03-19T17:40:40.856Z,4.05
2019-03-19T17:43:03.480Z,3.96
2019-03-19T17:45:32.296Z,3.87
2019-03-19T17:48:01.035Z,3.79
2019-03-19T17:50:42.830Z,3.68
2019-03-19T17:53:11.558Z,3.70
2019-03-19T17:55:40.233Z,3.75
2019-03-19T17:58:09.974Z,3.76
2019-03-19T18:00:47.406Z,3.76
2019-03-19T18:03:16.604Z,3.75
2019-03-19T18:05:45.775Z,3.57
2019-03-19T18:08:14.556Z,3.46
2019-03-19T18:10:43.273Z,3.47
2019-03-19T18:13:12.266Z,3.47
2019-03-19T18:15:40.982Z,3.36
2019-03-19T18:18:09.710Z,3.32
2019-03-19T18:20:38.377Z,3.34
2019-03-19T18:23:09.425Z,3.36
2019-03-19T18:25:38.345Z,3.40
2019-03-19T18:28:08.985Z,3.22
2019-03-19T18:30:37.821Z,3.15
2019-03-19T18:33:06.581Z,3.19
2019-03-19T18:35:35.320Z,3.16
2019-03-19T18:38:05.952Z,3.24
2019-03-19T18:40:37.341Z,3.13
2019-03-19T18:43:08.552Z,3.11
2019-03-19T18:45:41.232Z,3.05
2019-03-19T18:48:10.442Z,3.12
2019-03-19T18:50:40.684Z,3.02
2019-03-19T18:53:09.563Z,2.91
2019-03-19T18:55:38.206Z,2.86
2019-03-19T18:58:06.915Z,2.85
2019-03-19T19:00:35.671Z,2.84
2019-03-19T19:03:04.416Z,2.85
2019-03-19T19:05:33.180Z,2.82
2019-03-19T19:08:01.951Z,2.92
2019-03-19T19:10:32.357Z,2.97
2019-03-19T19:13:01.631Z,2.91
2019-03-19T19:15:30.705Z,2.92
2019-03-19T19:17:59.474Z,2.91
2019-03-19T19:20:31.785Z,2.96
2019-03-19T19:23:03.021Z,3.03
2019-03-19T19:25:31.990Z,2.98
2019-03-19T19:28:02.259Z,2.88
2019-03-19T19:30:32.375Z,2.73
2019-03-19T19:33:02.586Z,2.68
2019-03-19T19:35:31.636Z,2.75
2019-03-19T19:38:00.349Z,2.82
2019-03-19T19:40:30.773Z,2.71
2019-03-19T19:43:00.947Z,2.75
2019-03-19T19:45:31.641Z,2.66
2019-03-19T19:48:00.767Z,2.68
2019-03-19T19:50:30.313Z,2.70
2019-03-19T19:53:00.754Z,2.78
2019-03-19T19:55:34.383Z,2.71
2019-03-19T19:58:22.096Z,2.65
2019-03-19T20:00:55.660Z,2.71
2019-03-19T20:03:24.923Z,2.74
2019-03-19T20:05:54.165Z,2.73
2019-03-19T20:08:24.124Z,2.69
2019-03-19T20:10:55.670Z,2.77
2019-03-19T20:13:26.720Z,2.76
2019-03-19T20:15:56.055Z,2.63
2019-03-19T20:18:26.514Z,2.65
2019-03-19T20:20:55.811Z,2.54
2019-03-19T20:23:27.626Z,2.38
2019-03-19T20:25:56.466Z,2.43
2019-03-19T20:28:25.296Z,2.46
2019-03-19T20:30:54.379Z,2.49
2019-03-19T20:33:24.968Z,2.44
2019-03-19T20:35:55.649Z,2.34
2019-03-19T20:38:24.364Z,2.32
2019-03-19T20:40:53.504Z,2.31
2019-03-19T20:43:22.173Z,2.23
2019-03-19T20:45:50.877Z,2.35
2019-03-19T20:48:20.299Z,2.37
2019-03-19T20:50:49.014Z,2.36
2019-03-19T20:53:17.692Z,2.32
2019-03-19T20:55:46.343Z,2.35
2019-03-19T20:58:15.018Z,2.29
2019-03-19T21:00:43.811Z,2.29
2019-03-19T21:03:12.527Z,2.24
2019-03-19T21:05:45.659Z,2.13
2019-03-19T21:08:11.631Z,2.13
2019-03-19T21:10:40.298Z,2.10
2019-03-19T21:13:08.959Z,2.16
2019-03-19T21:15:39.049Z,2.09
2019-03-19T21:18:07.714Z,2.01
2019-03-19T21:20:36.402Z,1.90
2019-03-19T21:23:05.114Z,1.93
2019-03-19T21:25:33.799Z,1.87
2019-03-19T21:28:13.246Z,1.88
2019-03-19T21:30:32.885Z,1.85
2019-03-19T21:33:01.566Z,1.97
2019-03-19T21:35:30.254Z,1.98
2019-03-19T21:37:58.931Z,1.99
2019-03-19T21:40:29.191Z,2.07
2019-03-19T21:42:57.813Z,1.98
2019-03-19T21:45:26.882Z,2.01
2019-03-19T21:47:55.552Z,2.04
2019-03-19T21:50:25.294Z,1.81
2019-03-19T21:52:54.030Z,1.91
2019-03-19T21:55:22.971Z,1.93
2019-03-19T21:57:51.695Z,1.95
2019-03-19T22:00:24.771Z,1.98
2019-03-19T22:02:53.962Z,1.93
2019-03-19T22:05:22.667Z,1.97
2019-03-19T22:07:51.557Z,1.97
2019-03-19T22:10:21.069Z,1.93
2019-03-19T22:12:49.964Z,1.94
2019-03-19T22:15:23.753Z,1.93
2019-03-19T22:17:55.212Z,1.92
2019-03-19T22:20:24.003Z,1.93
2019-03-19T22:22:54.240Z,1.92
2019-03-19T22:25:22.977Z,1.93
2019-03-19T22:27:51.745Z,1.90
2019-03-19T22:30:21.553Z,1.96
2019-03-19T22:32:50.274Z,1.97
2019-03-19T22:35:18.973Z,2.03
2019-03-19T22:37:48.097Z,2.07
2019-03-19T22:40:17.653Z,2.16
2019-03-19T22:42:46.369Z,2.17
2019-03-19T22:45:18.994Z,2.15
2019-03-19T22:47:48.046Z,2.12
2019-03-19T22:50:18.460Z,2.02
2019-03-19T22:52:47.347Z,2.00
2019-03-19T22:55:16.481Z,1.95
2019-03-19T22:57:46.748Z,1.94
2019-03-19T23:00:27.356Z,1.93
2019-03-19T23:02:56.029Z,1.91
2019-03-19T23:05:24.712Z,1.95
2019-03-19T23:07:53.361Z,1.94
2019-03-19T23:10:22.082Z,1.93
2019-03-19T23:12:50.783Z,1.87
2019-03-19T23:15:19.707Z,1.91
2019-03-19T23:17:48.412Z,1.89
2019-03-19T23:20:17.127Z,1.87
2019-03-19T23:22:45.858Z,1.91
2019-03-19T23:25:14.589Z,1.91
2019-03-19T23:27:43.314Z,1.91
2019-03-19T23:30:16.752Z,1.93
2019-03-19T23:32:45.550Z,1.91
2019-03-19T23:35:15.134Z,1.88
2019-03-19T23:37:43.801Z,1.84
2019-03-19T23:40:14.235Z,1.83
2019-03-19T23:42:42.935Z,1.91
2019-03-19T23:45:13.073Z,1.96
2019-03-19T23:47:41.878Z,1.97
2019-03-19T23:50:12.710Z,1.95
2019-03-19T23:52:41.349Z,1.93
2019-03-19T23:55:10.439Z,1.95
2019-03-19T23:57:39.309Z,1.95
